Time,TemperatureF,DewpointF,PressureIn,WindDirection,WindDirectionDegrees,WindSpeedMPH,WindSpeedGustMPH,Humidity,HourlyPrecipIn,Conditions,Clouds,dailyrainin,SoftwareType,DateUTC
2013-04-03 00:02:00,34.0,27.0,30.31,ENE,59,0.0,-999.0,76,-99.99,,,-99.99,,2013-04-03 05:02:00,
2013-04-03 00:12:00,34.0,27.0,30.31,ENE,59,0.0,-999.0,76,-99.99,,,-99.99,,2013-04-03 05:12:00,
2013-04-03 00:22:00,32.0,25.0,30.31,ENE,59,0.0,-999.0,76,-99.99,,,-99.99,,2013-04-03 05:22:00,
2013-04-03 00:32:00,32.0,26.0,30.32,ENE,59,0.0,-999.0,79,-99.99,,,-99.99,,2013-04-03 05:32:00,
2013-04-03 00:42:00,32.0,26.0,30.32,ENE,59,0.0,-999.0,79,-99.99,,,-99.99,,2013-04-03 05:42:00,
2013-04-03 00:52:00,32.0,26.0,30.32,ENE,59,0.0,-999.0,79,-99.99,,,-99.99,,2013-04-03 05:52:00,
2013-04-03 01:02:00,31.0,26.0,30.32,ENE,59,0.0,-999.0,80,-99.99,,,-99.99,,2013-04-03 06:02:00,
2013-04-03 01:12:00,31.0,26.0,30.32,ENE,59,0.0,-999.0,80,-99.99,,,-99.99,,2013-04-03 06:12:00,
2013-04-03 01:22:00,31.0,26.0,30.32,ENE,59,0.0,-999.0,80,-99.99,,,-99.99,,2013-04-03 06:22:00,
2013-04-03 01:32:00,30.0,25.0,30.33,ENE,59,0.0,-999.0,80,-99.99,,,-99.99,,2013-04-03 06:32:00,
2013-04-03 01:42:00,30.0,25.0,30.33,ENE,59,0.0,-999.0,80,-99.99,,,-99.99,,2013-04-03 06:42:00,
2013-04-03 01:52:00,31.0,26.0,30.34,ENE,59,0.0,-999.0,81,-99.99,,,-99.99,,2013-04-03 06:52:00,
2013-04-03 02:02:00,32.0,26.0,30.34,ENE,59,0.0,-999.0,78,-99.99,,,-99.99,,2013-04-03 07:02:00,
2013-04-03 02:12:00,32.0,26.0,30.34,ENE,59,0.0,-999.0,78,-99.99,,,-99.99,,2013-04-03 07:12:00,
2013-04-03 02:23:00,32.0,26.0,30.34,ENE,59,0.0,-999.0,77,-99.99,,,-99.99,,2013-04-03 07:23:00,
2013-04-03 02:32:00,32.0,25.0,30.34,ENE,59,0.0,-999.0,75,-99.99,,,-99.99,,2013-04-03 07:32:00,
2013-04-03 02:42:00,32.0,25.0,30.34,ENE,59,0.0,-999.0,75,-99.99,,,-99.99,,2013-04-03 07:42:00,
2013-04-03 02:52:00,31.0,24.0,30.34,ENE,59,0.0,-999.0,75,-99.99,,,-99.99,,2013-04-03 07:52:00,
2013-04-03 03:03:00,31.0,24.0,30.34,ENE,59,0.0,-999.0,75,-99.99,,,-99.99,,2013-04-03 08:03:00,
2013-04-03 03:12:00,31.0,24.0,30.34,ENE,59,0.0,-999.0,75,-99.99,,,-99.99,,2013-04-03 08:12:00,
2013-04-03 03:22:00,30.0,23.0,30.34,ENE,59,0.0,-999.0,76,-99.99,,,-99.99,,2013-04-03 08:22:00,
2013-04-03 03:32:00,30.0,24.0,30.35,ENE,59,0.0,-999.0,77,-99.99,,,-99.99,,2013-04-03 08:32:00,
2013-04-03 03:42:00,30.0,24.0,30.35,ENE,59,0.0,-999.0,77,-99.99,,,-99.99,,2013-04-03 08:42:00,
2013-04-03 03:52:00,30.0,24.0,30.35,NE,56,0.0,-999.0,77,-99.99,,,-99.99,,2013-04-03 08:52:00,
2013-04-03 04:02:00,30.0,24.0,30.35,NE,56,0.0,-999.0,78,-99.99,,,-99.99,,2013-04-03 09:02:00,
2013-04-03 04:12:00,30.0,24.0,30.35,NE,56,0.0,-999.0,78,-99.99,,,-99.99,,2013-04-03 09:12:00,
2013-04-03 04:22:00,31.0,25.0,30.35,NE,56,0.0,-999.0,77,-99.99,,,-99.99,,2013-04-03 09:22:00,
2013-04-03 04:33:00,31.0,25.0,30.35,NE,56,0.0,-999.0,77,-99.99,,,-99.99,,2013-04-03 09:33:00,
2013-04-03 04:43:00,31.0,25.0,30.35,NE,56,0.0,-999.0,77,-99.99,,,-99.99,,2013-04-03 09:43:00,
2013-04-03 04:52:00,30.0,24.0,30.35,NE,56,0.0,-999.0,77,-99.99,,,-99.99,,2013-04-03 09:52:00,
2013-04-03 05:03:00,30.0,24.0,30.36,NE,56,0.0,-999.0,77,-99.99,,,-99.99,,2013-04-03 10:03:00,
2013-04-03 05:12:00,30.0,24.0,30.36,NE,56,0.0,-999.0,77,-99.99,,,-99.99,,2013-04-03 10:12:00,
2013-04-03 05:22:00,29.0,23.0,30.37,NE,55,0.0,-999.0,78,-99.99,,,-99.99,,2013-04-03 10:22:00,
2013-04-03 05:33:00,29.0,23.0,30.37,NE,55,0.0,-999.0,79,-99.99,,,-99.99,,2013-04-03 10:33:00,
2013-04-03 05:42:00,29.0,23.0,30.37,NE,55,0.0,-999.0,79,-99.99,,,-99.99,,2013-04-03 10:42:00,
2013-04-03 05:52:00,29.0,23.0,30.37,NE,55,0.0,-999.0,78,-99.99,,,-99.99,,2013-04-03 10:52:00,
2013-04-03 06:02:00,29.0,23.0,30.37,NE,55,0.0,-999.0,79,-99.99,,,-99.99,,2013-04-03 11:02:00,
2013-04-03 06:12:00,29.0,23.0,30.37,NE,55,0.0,-999.0,79,-99.99,,,-99.99,,2013-04-03 11:12:00,
2013-04-03 06:22:00,29.0,23.0,30.37,NE,55,0.0,-999.0,79,-99.99,,,-99.99,,2013-04-03 11:22:00,
2013-04-03 06:32:00,30.0,24.0,30.38,NE,55,0.0,-999.0,79,-99.99,,,-99.99,,2013-04-03 11:32:00,
2013-04-03 06:42:00,30.0,24.0,30.38,NE,55,0.0,-999.0,79,-99.99,,,-99.99,,2013-04-03 11:42:00,
2013-04-03 06:52:00,30.0,24.0,30.38,NE,55,0.0,-999.0,78,-99.99,,,-99.99,,2013-04-03 11:52:00,
2013-04-03 07:02:00,30.0,24.0,30.38,NE,55,0.0,-999.0,77,-99.99,,,-99.99,,2013-04-03 12:02:00,
2013-04-03 07:12:00,30.0,24.0,30.38,NE,55,0.0,-999.0,77,-99.99,,,-99.99,,2013-04-03 12:12:00,
2013-04-03 07:22:00,30.0,24.0,30.38,NE,55,0.0,-999.0,77,-99.99,,,-99.99,,2013-04-03 12:22:00,
2013-04-03 07:32:00,30.0,24.0,30.39,NE,55,0.0,-999.0,77,-99.99,,,-99.99,,2013-04-03 12:32:00,
2013-04-03 07:42:00,30.0,24.0,30.39,NE,55,0.0,-999.0,77,-99.99,,,-99.99,,2013-04-03 12:42:00,
2013-04-03 07:52:00,29.0,23.0,30.39,NE,55,0.0,-999.0,77,-99.99,,,-99.99,,2013-04-03 12:52:00,
2013-04-03 08:02:00,29.0,23.0,30.40,North,5,0.0,-999.0,78,-99.99,,,-99.99,,2013-04-03 13:02:00,
2013-04-03 08:12:00,29.0,23.0,30.40,North,5,0.0,-999.0,78,-99.99,,,-99.99,,2013-04-03 13:12:00,
2013-04-03 08:22:00,30.0,24.0,30.40,North,5,0.0,-999.0,79,-99.99,,,-99.99,,2013-04-03 13:22:00,
2013-04-03 08:32:00,31.0,25.0,30.40,North,5,0.0,-999.0,79,-99.99,,,-99.99,,2013-04-03 13:32:00,
2013-04-03 08:42:00,31.0,25.0,30.40,North,5,0.0,-999.0,79,-99.99,,,-99.99,,2013-04-03 13:42:00,
2013-04-03 08:52:00,34.0,27.0,30.40,SSE,162,1.0,-999.0,76,-99.99,,,-99.99,,2013-04-03 13:52:00,
2013-04-03 09:02:00,35.0,27.0,30.41,SSE,165,3.0,-999.0,71,-99.99,,,-99.99,,2013-04-03 14:02:00,
2013-04-03 09:12:00,35.0,27.0,30.41,SSE,165,3.0,-999.0,71,-99.99,,,-99.99,,2013-04-03 14:12:00,
2013-04-03 09:22:00,37.0,27.0,30.40,South,169,1.0,-999.0,67,-99.99,,,-99.99,,2013-04-03 14:22:00,
2013-04-03 09:32:00,38.0,27.0,30.40,SSE,153,2.0,-999.0,63,-99.99,,,-99.99,,2013-04-03 14:32:00,
2013-04-03 09:42:00,38.0,27.0,30.40,SSE,153,2.0,-999.0,63,-99.99,,,-99.99,,2013-04-03 14:42:00,
2013-04-03 09:52:00,39.0,27.0,30.40,SW,224,2.0,-999.0,62,-99.99,,,-99.99,,2013-04-03 14:52:00,
2013-04-03 10:02:00,41.0,26.0,30.40,SSE,165,3.0,-999.0,54,-99.99,,,-99.99,,2013-04-03 15:02:00,
2013-04-03 10:12:00,41.0,26.0,30.40,SSE,165,3.0,-999.0,54,-99.99,,,-99.99,,2013-04-03 15:12:00,
2013-04-03 10:23:00,42.0,27.0,30.40,SSE,161,2.0,-999.0,55,-99.99,,,-99.99,,2013-04-03 15:23:00,
2013-04-03 10:33:00,43.0,26.0,30.41,SSE,159,5.0,-999.0,51,-99.99,,,-99.99,,2013-04-03 15:33:00,
2013-04-03 10:42:00,43.0,26.0,30.41,SSE,159,5.0,-999.0,51,-99.99,,,-99.99,,2013-04-03 15:42:00,
2013-04-03 10:53:00,44.0,25.0,30.41,SE,128,2.0,-999.0,47,-99.99,,,-99.99,,2013-04-03 15:53:00,
2013-04-03 11:03:00,45.0,26.0,30.40,ESE,111,1.0,-999.0,47,-99.99,,,-99.99,,2013-04-03 16:03:00,
2013-04-03 11:12:00,45.0,26.0,30.40,ESE,111,1.0,-999.0,47,-99.99,,,-99.99,,2013-04-03 16:12:00,
2013-04-03 11:24:00,46.0,26.0,30.40,SSE,164,4.0,-999.0,45,-99.99,,,-99.99,,2013-04-03 16:24:00,
2013-04-03 11:32:00,47.0,26.0,30.40,SSE,160,4.0,-999.0,44,-99.99,,,-99.99,,2013-04-03 16:32:00,
2013-04-03 11:43:00,47.0,26.0,30.40,SSE,160,4.0,-999.0,44,-99.99,,,-99.99,,2013-04-03 16:43:00,
2013-04-03 11:52:00,47.0,26.0,30.39,SSE,154,2.0,-999.0,44,-99.99,,,-99.99,,2013-04-03 16:52:00,
2013-04-03 12:03:00,47.0,26.0,30.39,SSE,151,0.0,-999.0,43,-99.99,,,-99.99,,2013-04-03 17:03:00,
2013-04-03 12:13:00,47.0,26.0,30.39,SSE,151,0.0,-999.0,43,-99.99,,,-99.99,,2013-04-03 17:13:00,
2013-04-03 12:23:00,49.0,26.0,30.38,ESE,112,2.0,-999.0,41,-99.99,,,-99.99,,2013-04-03 17:23:00,
2013-04-03 12:33:00,48.0,25.0,30.37,SSE,158,3.0,-999.0,40,-99.99,,,-99.99,,2013-04-03 17:33:00,
2013-04-03 12:45:00,48.0,25.0,30.37,SSE,158,3.0,-999.0,40,-99.99,,,-99.99,,2013-04-03 17:45:00,
2013-04-03 12:53:00,49.0,25.0,30.37,SSE,167,0.0,-999.0,39,-99.99,,,-99.99,,2013-04-03 17:53:00,
2013-04-03 13:02:00,49.0,24.0,30.36,ENE,69,3.0,-999.0,37,-99.99,,,-99.99,,2013-04-03 18:02:00,
2013-04-03 13:12:00,49.0,24.0,30.36,ENE,69,3.0,-999.0,37,-99.99,,,-99.99,,2013-04-03 18:12:00,
2013-04-03 13:22:00,49.0,24.0,30.36,ENE,69,3.0,-999.0,37,-99.99,,,-99.99,,2013-04-03 18:22:00,
2013-04-03 13:33:00,50.0,27.0,30.36,ESE,123,3.0,-999.0,41,-99.99,,,-99.99,,2013-04-03 18:33:00,
2013-04-03 13:42:00,50.0,27.0,30.36,ESE,123,3.0,-999.0,41,-99.99,,,-99.99,,2013-04-03 18:42:00,
2013-04-03 13:52:00,51.0,28.0,30.35,SSE,157,0.0,-999.0,40,-99.99,,,-99.99,,2013-04-03 18:52:00,
2013-04-03 14:03:00,50.0,25.0,30.35,ESE,122,0.0,-999.0,37,-99.99,,,-99.99,,2013-04-03 19:03:00,
2013-04-03 14:12:00,50.0,25.0,30.35,ESE,122,0.0,-999.0,37,-99.99,,,-99.99,,2013-04-03 19:12:00,
2013-04-03 14:22:00,52.0,28.0,30.34,SSE,161,1.0,-999.0,40,-99.99,,,-99.99,,2013-04-03 19:22:00,
2013-04-03 14:32:00,51.0,26.0,30.34,SE,145,2.0,-999.0,38,-99.99,,,-99.99,,2013-04-03 19:32:00,
2013-04-03 14:42:00,51.0,26.0,30.34,SE,145,2.0,-999.0,38,-99.99,,,-99.99,,2013-04-03 19:42:00,
2013-04-03 14:52:00,51.0,26.0,30.34,SE,140,1.0,-999.0,38,-99.99,,,-99.99,,2013-04-03 19:52:00,
2013-04-03 15:02:00,51.0,26.0,30.33,ENE,77,0.0,-999.0,37,-99.99,,,-99.99,,2013-04-03 20:02:00,
2013-04-03 15:12:00,51.0,26.0,30.33,ENE,77,0.0,-999.0,37,-99.99,,,-99.99,,2013-04-03 20:12:00,
2013-04-03 15:22:00,51.0,26.0,30.33,ENE,77,0.0,-999.0,37,-99.99,,,-99.99,,2013-04-03 20:22:00,
2013-04-03 15:32:00,52.0,28.0,30.32,NE,41,2.0,-999.0,40,-99.99,,,-99.99,,2013-04-03 20:32:00,
2013-04-03 15:42:00,52.0,28.0,30.32,NE,41,2.0,-999.0,40,-99.99,,,-99.99,,2013-04-03 20:42:00,
2013-04-03 15:53:00,52.0,27.0,30.32,NNE,32,1.0,-999.0,38,-99.99,,,-99.99,,2013-04-03 20:53:00,
2013-04-03 16:02:00,52.0,28.0,30.31,ENE,73,1.0,-999.0,40,-99.99,,,-99.99,,2013-04-03 21:02:00,
2013-04-03 16:12:00,52.0,28.0,30.31,ENE,73,1.0,-999.0,40,-99.99,,,-99.99,,2013-04-03 21:12:00,
2013-04-03 16:22:00,51.0,27.0,30.30,ENE,66,0.0,-999.0,39,-99.99,,,-99.99,,2013-04-03 21:22:00,
2013-04-03 16:32:00,51.0,27.0,30.30,ENE,66,0.0,-999.0,39,-99.99,,,-99.99,,2013-04-03 21:32:00,
2013-04-03 16:42:00,51.0,27.0,30.30,ENE,66,0.0,-999.0,39,-99.99,,,-99.99,,2013-04-03 21:42:00,
2013-04-03 16:52:00,51.0,27.0,30.30,ENE,66,0.0,-999.0,39,-99.99,,,-99.99,,2013-04-03 21:52:00,
2013-04-03 17:02:00,51.0,28.0,30.29,ENE,75,0.0,-999.0,41,-99.99,,,-99.99,,2013-04-03 22:02:00,
2013-04-03 17:12:00,51.0,28.0,30.29,ENE,75,0.0,-999.0,41,-99.99,,,-99.99,,2013-04-03 22:12:00,
2013-04-03 17:22:00,51.0,28.0,30.28,ENE,75,0.0,-999.0,40,-99.99,,,-99.99,,2013-04-03 22:22:00,
2013-04-03 17:32:00,51.0,28.0,30.28,ENE,75,0.0,-999.0,41,-99.99,,,-99.99,,2013-04-03 22:32:00,
2013-04-03 17:42:00,51.0,28.0,30.28,ENE,75,0.0,-999.0,41,-99.99,,,-99.99,,2013-04-03 22:42:00,
2013-04-03 17:52:00,51.0,29.0,30.28,ENE,75,0.0,-999.0,42,-99.99,,,-99.99,,2013-04-03 22:52:00,
2013-04-03 18:02:00,51.0,29.0,30.28,SSE,151,0.0,-999.0,43,-99.99,,,-99.99,,2013-04-03 23:02:00,
2013-04-03 18:12:00,51.0,29.0,30.28,SSE,151,0.0,-999.0,43,-99.99,,,-99.99,,2013-04-03 23:12:00,
2013-04-03 18:22:00,50.0,28.0,30.27,SE,129,0.0,-999.0,43,-99.99,,,-99.99,,2013-04-03 23:22:00,
2013-04-03 18:32:00,50.0,28.0,30.27,SE,129,0.0,-999.0,42,-99.99,,,-99.99,,2013-04-03 23:32:00,
2013-04-03 18:42:00,50.0,28.0,30.27,SE,129,0.0,-999.0,42,-99.99,,,-99.99,,2013-04-03 23:42:00,
2013-04-03 18:53:00,50.0,28.0,30.27,SE,126,0.0,-999.0,43,-99.99,,,-99.99,,2013-04-03 23:53:00,
2013-04-03 19:02:00,50.0,28.0,30.27,East,100,0.0,-999.0,43,-99.99,,,-99.99,,2013-04-04 00:02:00,
2013-04-03 19:12:00,50.0,28.0,30.27,East,100,0.0,-999.0,43,-99.99,,,-99.99,,2013-04-04 00:12:00,
2013-04-03 19:22:00,49.0,28.0,30.27,East,99,0.0,-999.0,44,-99.99,,,-99.99,,2013-04-04 00:22:00,
2013-04-03 19:32:00,49.0,29.0,30.27,East,99,0.0,-999.0,46,-99.99,,,-99.99,,2013-04-04 00:32:00,
2013-04-03 19:43:00,49.0,29.0,30.27,East,99,0.0,-999.0,46,-99.99,,,-99.99,,2013-04-04 00:43:00,
2013-04-03 19:52:00,48.0,29.0,30.26,East,99,0.0,-999.0,48,-99.99,,,-99.99,,2013-04-04 00:52:00,
2013-04-03 20:02:00,48.0,29.0,30.26,East,99,0.0,-999.0,48,-99.99,,,-99.99,,2013-04-04 01:02:00,
2013-04-03 20:12:00,48.0,29.0,30.26,East,99,0.0,-999.0,48,-99.99,,,-99.99,,2013-04-04 01:12:00,
2013-04-03 20:22:00,45.0,28.0,30.26,ESE,106,0.0,-999.0,52,-99.99,,,-99.99,,2013-04-04 01:22:00,
2013-04-03 20:32:00,45.0,29.0,30.26,ESE,106,0.0,-999.0,53,-99.99,,,-99.99,,2013-04-04 01:32:00,
2013-04-03 20:43:00,45.0,29.0,30.26,ESE,106,0.0,-999.0,53,-99.99,,,-99.99,,2013-04-04 01:43:00,
2013-04-03 20:52:00,45.0,28.0,30.26,ESE,106,0.0,-999.0,51,-99.99,,,-99.99,,2013-04-04 01:52:00,
2013-04-03 21:02:00,45.0,28.0,30.27,ESE,106,0.0,-999.0,52,-99.99,,,-99.99,,2013-04-04 02:02:00,
2013-04-03 21:12:00,45.0,28.0,30.27,ESE,106,0.0,-999.0,52,-99.99,,,-99.99,,2013-04-04 02:12:00,
2013-04-03 21:22:00,44.0,28.0,30.27,ESE,106,0.0,-999.0,54,-99.99,,,-99.99,,2013-04-04 02:22:00,
2013-04-03 21:32:00,44.0,28.0,30.27,ESE,106,0.0,-999.0,54,-99.99,,,-99.99,,2013-04-04 02:32:00,
2013-04-03 21:42:00,44.0,28.0,30.27,ESE,106,0.0,-999.0,54,-99.99,,,-99.99,,2013-04-04 02:42:00,
2013-04-03 21:52:00,44.0,28.0,30.27,ESE,106,0.0,-999.0,54,-99.99,,,-99.99,,2013-04-04 02:52:00,
2013-04-03 22:02:00,41.0,27.0,30.28,ESE,106,0.0,-999.0,58,-99.99,,,-99.99,,2013-04-04 03:02:00,
2013-04-03 22:12:00,41.0,27.0,30.28,ESE,106,0.0,-999.0,58,-99.99,,,-99.99,,2013-04-04 03:12:00,
2013-04-03 22:22:00,41.0,29.0,30.28,ESE,106,0.0,-999.0,62,-99.99,,,-99.99,,2013-04-04 03:22:00,
2013-04-03 22:33:00,41.0,30.0,30.28,ESE,106,0.0,-999.0,65,-99.99,,,-99.99,,2013-04-04 03:33:00,
2013-04-03 22:43:00,41.0,30.0,30.28,ESE,106,0.0,-999.0,65,-99.99,,,-99.99,,2013-04-04 03:43:00,
2013-04-03 22:53:00,40.0,31.0,30.28,ESE,106,0.0,-999.0,69,-99.99,,,-99.99,,2013-04-04 03:53:00,
2013-04-03 23:03:00,39.0,30.0,30.28,ESE,106,0.0,-999.0,69,-99.99,,,-99.99,,2013-04-04 04:03:00,
2013-04-03 23:12:00,39.0,30.0,30.28,ESE,106,0.0,-999.0,69,-99.99,,,-99.99,,2013-04-04 04:12:00,
2013-04-03 23:23:00,38.0,29.0,30.28,ESE,106,0.0,-999.0,69,-99.99,,,-99.99,,2013-04-04 04:23:00,
2013-04-03 23:33:00,37.0,29.0,30.28,ESE,106,0.0,-999.0,73,-99.99,,,-99.99,,2013-04-04 04:33:00,
2013-04-03 23:43:00,37.0,29.0,30.28,ESE,106,0.0,-999.0,73,-99.99,,,-99.99,,2013-04-04 04:43:00,
2013-04-03 23:52:00,36.0,28.0,30.27,ESE,106,0.0,-999.0,73,-99.99,,,-99.99,,2013-04-04 04:52:00,